createdAt,value
2022-08-19T00:00:15.789Z,45.58
2022-08-19T00:00:32.029Z,45.58
2022-08-19T00:00:48.808Z,45.57
2022-08-19T00:01:03.664Z,45.58
2022-08-19T00:01:28.670Z,45.59
2022-08-19T00:01:38.069Z,45.58
2022-08-19T00:01:53.284Z,45.59
2022-08-19T00:02:07.944Z,45.59
2022-08-19T00:02:23.668Z,45.59
2022-08-19T00:02:49.972Z,45.58
2022-08-19T00:02:56.014Z,45.6
2022-08-19T00:03:12.002Z,45.58
2022-08-19T00:03:27.590Z,45.56
2022-08-19T00:03:44.306Z,45.6
2022-08-19T00:03:59.461Z,45.59
2022-08-19T00:04:14.889Z,45.62
2022-08-19T00:04:33.263Z,45.62
2022-08-19T00:04:47.887Z,45.6
2022-08-19T00:05:04.556Z,45.62
2022-08-19T00:05:19.424Z,45.61
2022-08-19T00:05:37.294Z,45.59
2022-08-19T00:05:51.990Z,45.59
2022-08-19T00:06:08.783Z,45.6
2022-08-19T00:06:23.369Z,45.59
2022-08-19T00:06:39.289Z,45.58
2022-08-19T00:06:56.191Z,45.59
2022-08-19T00:07:11.010Z,45.6
2022-08-19T00:07:28.074Z,45.6
2022-08-19T00:07:43.345Z,45.6
2022-08-19T00:08:00.167Z,45.58
2022-08-19T00:08:15.717Z,45.58
2022-08-19T00:08:32.259Z,45.59
2022-08-19T00:08:47.788Z,45.6
2022-08-19T00:09:04.624Z,45.59
2022-08-19T00:09:19.838Z,45.56
2022-08-19T00:09:34.904Z,45.56
2022-08-19T00:09:51.469Z,45.57
2022-08-19T00:10:07.451Z,45.58
2022-08-19T00:10:24.187Z,45.58
2022-08-19T00:10:39.638Z,45.57
2022-08-19T00:10:57.688Z,45.55
2022-08-19T00:11:15.094Z,45.58
2022-08-19T00:11:28.092Z,45.59
2022-08-19T00:11:43.189Z,45.6
2022-08-19T00:12:01.941Z,45.56
2022-08-19T00:12:16.159Z,45.59
2022-08-19T00:12:31.550Z,45.58
2022-08-19T00:12:47.919Z,45.59
2022-08-19T00:13:03.349Z,45.59
2022-08-19T00:13:20.507Z,45.56
2022-08-19T00:13:37.183Z,45.57
2022-08-19T00:13:51.740Z,45.59
2022-08-19T00:14:07.660Z,45.6
2022-08-19T00:14:24.089Z,45.6
2022-08-19T00:14:39.356Z,45.61
2022-08-19T00:14:54.757Z,45.59
2022-08-19T00:15:11.813Z,45.56
2022-08-19T00:15:26.806Z,45.58
2022-08-19T00:15:43.775Z,45.59
2022-08-19T00:15:59.872Z,45.59
2022-08-19T00:16:16.068Z,45.59
2022-08-19T00:16:31.997Z,45.6
2022-08-19T00:16:49.772Z,45.6
2022-08-19T00:17:03.154Z,45.6
2022-08-19T00:17:20.803Z,45.61
2022-08-19T00:17:36.089Z,45.6
2022-08-19T00:17:51.462Z,45.59
2022-08-19T00:18:07.599Z,45.61
2022-08-19T00:18:22.865Z,45.6
2022-08-19T00:18:40.101Z,45.58
2022-08-19T00:18:56.714Z,45.57
2022-08-19T00:19:14.409Z,45.58
2022-08-19T00:19:29.739Z,45.59
2022-08-19T00:19:44.264Z,45.59
2022-08-19T00:19:59.808Z,45.59
2022-08-19T00:20:14.806Z,45.62
2022-08-19T00:20:32.017Z,45.6
2022-08-19T00:20:48.468Z,45.61
2022-08-19T00:21:05.313Z,45.6
2022-08-19T00:21:19.431Z,45.59
2022-08-19T00:21:36.032Z,45.6
2022-08-19T00:21:51.750Z,45.6
2022-08-19T00:22:08.465Z,45.63
2022-08-19T00:22:24.086Z,45.6
2022-08-19T00:22:40.449Z,45.63
2022-08-19T00:22:55.972Z,45.58
2022-08-19T00:23:11.574Z,45.6
2022-08-19T00:23:27.890Z,45.59
2022-08-19T00:23:42.940Z,45.6
2022-08-19T00:24:00.354Z,45.62
2022-08-19T00:24:14.955Z,45.62
2022-08-19T00:24:32.439Z,45.62
2022-08-19T00:24:49.581Z,45.62
2022-08-19T00:25:04.020Z,45.61
2022-08-19T00:25:30.153Z,45.6
2022-08-19T00:25:36.044Z,45.6
2022-08-19T00:25:51.609Z,45.6
2022-08-19T00:26:07.283Z,45.6
2022-08-19T00:26:24.257Z,45.59
2022-08-19T00:26:41.482Z,45.61
2022-08-19T00:26:56.388Z,45.62
2022-08-19T00:27:26.025Z,45.63
2022-08-19T00:27:28.216Z,45.6
2022-08-19T00:27:46.336Z,45.62
2022-08-19T00:28:00.608Z,45.6
2022-08-19T00:28:15.594Z,45.6
2022-08-19T00:28:30.849Z,45.59
2022-08-19T00:28:48.083Z,45.59
2022-08-19T00:29:03.039Z,45.6
2022-08-19T00:29:19.744Z,45.59
2022-08-19T00:29:35.563Z,45.61
2022-08-19T00:29:52.538Z,45.62
2022-08-19T00:30:06.999Z,45.63
2022-08-19T00:30:23.775Z,45.62
2022-08-19T00:30:39.910Z,45.63
2022-08-19T00:30:56.150Z,45.61
2022-08-19T00:31:11.872Z,45.61
2022-08-19T00:31:28.497Z,45.6
2022-08-19T00:31:43.449Z,45.6
2022-08-19T00:32:02.250Z,45.62
2022-08-19T00:32:17.443Z,45.62
2022-08-19T00:32:31.139Z,45.63
2022-08-19T00:32:48.225Z,45.65
2022-08-19T00:33:03.647Z,45.64
2022-08-19T00:33:20.005Z,45.62
2022-08-19T00:33:35.529Z,45.62
2022-08-19T00:33:50.857Z,45.62
2022-08-19T00:34:08.018Z,45.63
2022-08-19T00:34:23.463Z,45.62
2022-08-19T00:34:39.784Z,45.62
2022-08-19T00:34:55.578Z,45.63
2022-08-19T00:35:12.379Z,45.62
2022-08-19T00:35:27.802Z,45.63
2022-08-19T00:35:44.465Z,45.62
2022-08-19T00:35:59.963Z,45.62
2022-08-19T00:36:16.034Z,45.62
2022-08-19T00:36:31.435Z,45.63
2022-08-19T00:36:46.616Z,45.63
2022-08-19T00:37:03.627Z,45.6
2022-08-19T00:37:20.214Z,45.62
2022-08-19T00:37:36.011Z,45.62
2022-08-19T00:37:52.785Z,45.61
2022-08-19T00:38:09.460Z,45.62
2022-08-19T00:38:27.278Z,45.62
2022-08-19T00:38:39.814Z,45.62
2022-08-19T00:38:55.604Z,45.63
2022-08-19T00:39:11.879Z,45.63
2022-08-19T00:39:27.311Z,45.62
2022-08-19T00:39:43.406Z,45.63
2022-08-19T00:39:59.657Z,45.61
2022-08-19T00:40:15.369Z,45.63
2022-08-19T00:40:31.971Z,45.62
2022-08-19T00:40:47.219Z,45.63
2022-08-19T00:41:04.512Z,45.62
2022-08-19T00:41:19.844Z,45.65
2022-08-19T00:41:36.296Z,45.63
2022-08-19T00:41:53.252Z,45.62
2022-08-19T00:42:07.088Z,45.63
2022-08-19T00:42:23.579Z,45.61
2022-08-19T00:42:39.658Z,45.64
2022-08-19T00:42:55.906Z,45.66
2022-08-19T00:43:12.691Z,45.65
2022-08-19T00:43:27.684Z,45.64
2022-08-19T00:43:44.458Z,45.63
2022-08-19T00:43:59.809Z,45.65
2022-08-19T00:44:15.951Z,45.64
2022-08-19T00:44:31.953Z,45.62
2022-08-19T00:44:48.133Z,45.65
2022-08-19T00:45:03.309Z,45.66
2022-08-19T00:45:19.899Z,45.63
2022-08-19T00:45:36.663Z,45.65
2022-08-19T00:45:53.148Z,45.62
2022-08-19T00:46:07.860Z,45.63
2022-08-19T00:46:24.300Z,45.61
2022-08-19T00:46:39.436Z,45.62
2022-08-19T00:46:58.510Z,45.59
2022-08-19T00:47:14.315Z,45.61
2022-08-19T00:47:27.235Z,45.63
2022-08-19T00:47:43.659Z,45.62
2022-08-19T00:47:59.299Z,45.62
2022-08-19T00:48:15.856Z,45.62
2022-08-19T00:48:31.594Z,45.62
2022-08-19T00:48:47.883Z,45.6
2022-08-19T00:49:03.701Z,45.64
2022-08-19T00:49:20.501Z,45.63
2022-08-19T00:49:36.479Z,45.65
2022-08-19T00:49:52.022Z,45.62
2022-08-19T00:50:08.052Z,45.63
2022-08-19T00:50:23.169Z,45.61
2022-08-19T00:50:40.069Z,45.63
2022-08-19T00:50:55.484Z,45.63
2022-08-19T00:51:11.607Z,45.64
2022-08-19T00:51:27.149Z,45.65
2022-08-19T00:51:44.468Z,45.63
2022-08-19T00:52:00.702Z,45.66
2022-08-19T00:52:16.558Z,45.65
2022-08-19T00:52:31.877Z,45.64
2022-08-19T00:52:47.134Z,45.64
2022-08-19T00:53:03.510Z,45.66
2022-08-19T00:53:19.445Z,45.66
2022-08-19T00:53:36.037Z,45.66
2022-08-19T00:53:50.757Z,45.65
2022-08-19T00:54:10.744Z,45.63
2022-08-19T00:54:28.262Z,45.65
2022-08-19T00:54:40.453Z,45.63
2022-08-19T00:54:55.853Z,45.63
2022-08-19T00:55:12.143Z,45.65
2022-08-19T00:55:27.829Z,45.65
2022-08-19T00:55:43.116Z,45.65
2022-08-19T00:55:59.786Z,45.63
2022-08-19T00:56:18.205Z,45.62
2022-08-19T00:56:31.738Z,45.63
2022-08-19T00:56:47.767Z,45.65
2022-08-19T00:57:04.355Z,45.65
2022-08-19T00:57:19.458Z,45.61
2022-08-19T00:57:36.559Z,45.64
2022-08-19T00:57:51.373Z,45.64
2022-08-19T00:58:07.953Z,45.63
2022-08-19T00:58:24.103Z,45.63
2022-08-19T00:58:38.666Z,45.63
2022-08-19T00:58:56.248Z,45.62
2022-08-19T00:59:11.596Z,45.62
2022-08-19T00:59:56.349Z,45.62
2022-08-19T01:00:01.923Z,45.63
2022-08-19T01:00:02.377Z,45.62
2022-08-19T01:00:15.729Z,45.62
2022-08-19T01:00:33.377Z,45.61
2022-08-19T01:00:47.657Z,45.62
2022-08-19T01:01:03.276Z,45.65
2022-08-19T01:01:19.319Z,45.63
2022-08-19T01:01:35.648Z,45.62
2022-08-19T01:01:51.736Z,45.63
2022-08-19T01:02:08.600Z,45.62
2022-08-19T01:02:24.382Z,45.63
2022-08-19T01:02:40.983Z,45.62
2022-08-19T01:02:56.426Z,45.62
2022-08-19T01:03:11.182Z,45.63
2022-08-19T01:03:27.771Z,45.62
2022-08-19T01:03:57.138Z,45.65
2022-08-19T01:03:59.294Z,45.63
2022-08-19T01:04:16.103Z,45.65
2022-08-19T01:04:33.693Z,45.65
2022-08-19T01:04:48.137Z,45.65
2022-08-19T01:05:03.658Z,45.65
2022-08-19T01:05:19.961Z,45.65
2022-08-19T01:05:35.221Z,45.63
2022-08-19T01:05:51.877Z,45.63
2022-08-19T01:06:07.633Z,45.62
2022-08-19T01:06:22.596Z,45.62
2022-08-19T01:06:40.024Z,45.64
2022-08-19T01:06:57.742Z,45.62
2022-08-19T01:07:15.039Z,45.61
2022-08-19T01:07:27.186Z,45.62
2022-08-19T01:07:43.788Z,45.63
2022-08-19T01:07:59.797Z,45.63
2022-08-19T01:08:15.619Z,45.65
2022-08-19T01:08:31.235Z,45.61
2022-08-19T01:08:50.020Z,45.64
2022-08-19T01:09:03.594Z,45.63
2022-08-19T01:09:19.335Z,45.64
2022-08-19T01:09:35.588Z,45.63
2022-08-19T01:09:50.817Z,45.64
2022-08-19T01:10:08.203Z,45.63
2022-08-19T01:10:23.687Z,45.65
2022-08-19T01:10:40.254Z,45.65
2022-08-19T01:10:56.894Z,45.65
2022-08-19T01:11:12.293Z,45.64
2022-08-19T01:11:27.553Z,45.65
2022-08-19T01:11:42.823Z,45.64
2022-08-19T01:11:59.647Z,45.64
2022-08-19T01:12:14.579Z,45.64
2022-08-19T01:12:32.044Z,45.63
2022-08-19T01:12:47.324Z,45.63
2022-08-19T01:13:03.921Z,45.64
2022-08-19T01:13:19.660Z,45.65
2022-08-19T01:13:44.475Z,45.65
2022-08-19T01:13:51.512Z,45.65
2022-08-19T01:14:07.905Z,45.65
2022-08-19T01:14:23.909Z,45.63
2022-08-19T01:14:39.740Z,45.66
2022-08-19T01:14:58.423Z,45.66
2022-08-19T01:15:10.632Z,45.64
2022-08-19T01:15:27.801Z,45.66
2022-08-19T01:15:43.219Z,45.67
2022-08-19T01:16:00.004Z,45.67
2022-08-19T01:16:15.810Z,45.67
2022-08-19T01:16:32.096Z,45.69
2022-08-19T01:16:49.126Z,45.66
2022-08-19T01:17:04.324Z,45.66
2022-08-19T01:17:19.960Z,45.65
2022-08-19T01:17:35.362Z,45.66
2022-08-19T01:17:51.871Z,45.67
2022-08-19T01:18:07.339Z,45.65
2022-08-19T01:18:23.438Z,45.66
2022-08-19T01:18:39.154Z,45.67
2022-08-19T01:18:57.281Z,45.66
2022-08-19T01:19:11.121Z,45.65
2022-08-19T01:19:27.993Z,45.63
2022-08-19T01:19:44.943Z,45.66
2022-08-19T01:19:58.468Z,45.65
2022-08-19T01:20:15.292Z,45.66
2022-08-19T01:20:30.644Z,45.66
2022-08-19T01:20:47.798Z,45.67
2022-08-19T01:21:03.338Z,45.7
2022-08-19T01:21:20.028Z,45.67
2022-08-19T01:21:35.189Z,45.67
2022-08-19T01:21:51.670Z,45.65
2022-08-19T01:22:14.257Z,45.66
2022-08-19T01:22:30.078Z,45.66
2022-08-19T01:22:39.285Z,45.66
2022-08-19T01:22:54.814Z,45.67
2022-08-19T01:23:12.076Z,45.66
2022-08-19T01:23:28.365Z,45.66
2022-08-19T01:23:43.734Z,45.65
2022-08-19T01:23:58.973Z,45.66
2022-08-19T01:24:15.545Z,45.68
2022-08-19T01:24:31.815Z,45.7
2022-08-19T01:24:49.993Z,45.7
2022-08-19T01:25:03.506Z,45.66
2022-08-19T01:25:18.562Z,45.66
2022-08-19T01:25:35.626Z,45.67
2022-08-19T01:25:50.831Z,45.66
2022-08-19T01:26:07.245Z,45.69
2022-08-19T01:26:22.788Z,45.69
2022-08-19T01:26:39.959Z,45.69
2022-08-19T01:26:56.427Z,45.68
2022-08-19T01:27:12.129Z,45.66
2022-08-19T01:27:27.245Z,45.67
2022-08-19T01:27:44.110Z,45.7
2022-08-19T01:28:01.672Z,45.68
2022-08-19T01:28:14.730Z,45.66
2022-08-19T01:28:34.335Z,45.68
2022-08-19T01:28:46.725Z,45.68
2022-08-19T01:29:04.792Z,45.69
2022-08-19T01:29:19.259Z,45.68
2022-08-19T01:29:35.887Z,45.68
2022-08-19T01:29:51.180Z,45.7
2022-08-19T01:30:07.670Z,45.7
2022-08-19T01:30:23.019Z,45.7
2022-08-19T01:30:38.445Z,45.7
2022-08-19T01:30:57.252Z,45.71
2022-08-19T01:31:10.768Z,45.7
2022-08-19T01:31:28.050Z,45.69
2022-08-19T01:31:42.983Z,45.67
2022-08-19T01:31:59.396Z,45.68
2022-08-19T01:32:33.513Z,45.69
2022-08-19T01:32:33.713Z,45.68
2022-08-19T01:32:47.774Z,45.7
2022-08-19T01:33:04.900Z,45.68
2022-08-19T01:33:20.749Z,45.69
2022-08-19T01:33:34.617Z,45.71
2022-08-19T01:33:51.855Z,45.69
2022-08-19T01:34:06.845Z,45.7
2022-08-19T01:34:24.188Z,45.68
2022-08-19T01:34:39.348Z,45.68
2022-08-19T01:34:55.738Z,45.68
2022-08-19T01:35:10.832Z,45.68
2022-08-19T01:35:27.773Z,45.72
2022-08-19T01:35:43.187Z,45.7
2022-08-19T01:36:00.563Z,45.7
2022-08-19T01:36:15.164Z,45.7
2022-08-19T01:36:30.974Z,45.7
2022-08-19T01:36:47.692Z,45.71
2022-08-19T01:37:03.032Z,45.71
2022-08-19T01:37:24.904Z,45.71
2022-08-19T01:37:34.831Z,45.7
2022-08-19T01:37:51.555Z,45.7
2022-08-19T01:38:07.482Z,45.7
2022-08-19T01:38:26.795Z,45.7
2022-08-19T01:38:44.233Z,45.7
2022-08-19T01:38:55.273Z,45.71
2022-08-19T01:39:11.982Z,45.71
2022-08-19T01:39:28.050Z,45.7
2022-08-19T01:39:43.645Z,45.7
2022-08-19T01:39:59.319Z,45.71
2022-08-19T01:40:15.541Z,45.69
2022-08-19T01:40:31.614Z,45.71
2022-08-19T01:40:47.487Z,45.71
2022-08-19T01:41:03.029Z,45.71
2022-08-19T01:41:20.129Z,45.72
2022-08-19T01:41:35.418Z,45.7
2022-08-19T01:41:50.624Z,45.68
2022-08-19T01:42:07.521Z,45.71
2022-08-19T01:42:30.592Z,45.68
2022-08-19T01:42:39.821Z,45.68
2022-08-19T01:42:55.322Z,45.69
2022-08-19T01:43:12.150Z,45.71
2022-08-19T01:43:27.509Z,45.72
2022-08-19T01:44:09.883Z,45.69
2022-08-19T01:44:10.057Z,45.72
2022-08-19T01:44:19.108Z,45.7
2022-08-19T01:44:31.260Z,45.67
2022-08-19T01:44:46.476Z,45.69
2022-08-19T01:45:03.617Z,45.69
2022-08-19T01:45:19.095Z,45.7
2022-08-19T01:45:35.535Z,45.7
2022-08-19T01:45:51.590Z,45.69
2022-08-19T01:46:07.629Z,45.69
2022-08-19T01:46:25.121Z,45.69
2022-08-19T01:46:39.786Z,45.67
2022-08-19T01:46:55.389Z,45.7
2022-08-19T01:47:10.590Z,45.7
2022-08-19T01:47:27.608Z,45.71
2022-08-19T01:47:44.148Z,45.69
2022-08-19T01:48:01.936Z,45.71
2022-08-19T01:48:14.881Z,45.68
2022-08-19T01:48:31.720Z,45.7
2022-08-19T01:48:47.653Z,45.7
2022-08-19T01:49:04.124Z,45.72
2022-08-19T01:49:19.592Z,45.72
2022-08-19T01:49:35.198Z,45.72
2022-08-19T01:49:52.417Z,45.71
2022-08-19T01:50:07.272Z,45.71
2022-08-19T01:50:23.916Z,45.71
2022-08-19T01:50:40.288Z,45.71
2022-08-19T01:50:55.419Z,45.71
2022-08-19T01:51:11.320Z,45.69
2022-08-19T01:51:27.845Z,45.7
2022-08-19T01:51:43.707Z,45.7
2022-08-19T01:52:01.093Z,45.7
2022-08-19T01:52:15.123Z,45.72
2022-08-19T01:52:30.905Z,45.72
2022-08-19T01:52:47.857Z,45.71
2022-08-19T01:53:06.632Z,45.71
2022-08-19T01:53:19.565Z,45.71
2022-08-19T01:53:35.337Z,45.7
2022-08-19T01:53:51.449Z,45.73
2022-08-19T01:54:06.735Z,45.7
2022-08-19T01:54:27.625Z,45.73
2022-08-19T01:54:39.248Z,45.71
2022-08-19T01:54:55.784Z,45.72
2022-08-19T01:55:13.710Z,45.74
2022-08-19T01:55:28.494Z,45.73
2022-08-19T01:55:43.647Z,45.72
2022-08-19T01:55:58.454Z,45.72
2022-08-19T01:56:16.018Z,45.69
2022-08-19T01:56:31.015Z,45.72
2022-08-19T01:56:48.243Z,45.73
2022-08-19T01:57:02.809Z,45.71
2022-08-19T01:57:19.803Z,45.73
2022-08-19T01:57:35.782Z,45.73
2022-08-19T01:57:50.707Z,45.73
2022-08-19T01:58:08.369Z,45.71
2022-08-19T01:58:22.694Z,45.73
2022-08-19T01:58:40.642Z,45.71
2022-08-19T01:58:55.047Z,45.71
2022-08-19T01:59:11.260Z,45.71
2022-08-19T01:59:27.145Z,45.72
2022-08-19T01:59:44.212Z,45.71
2022-08-19T01:59:58.956Z,45.71
2022-08-19T02:00:15.783Z,45.73
2022-08-19T02:00:35.589Z,45.73
2022-08-19T02:00:48.483Z,45.72
2022-08-19T02:01:03.696Z,45.7
2022-08-19T02:01:18.669Z,45.68
2022-08-19T02:01:35.664Z,45.7
2022-08-19T02:01:52.578Z,45.71
2022-08-19T02:02:10.100Z,45.7
2022-08-19T02:02:23.090Z,45.7
2022-08-19T02:02:39.981Z,45.71
2022-08-19T02:02:55.200Z,45.72
2022-08-19T02:03:10.883Z,45.7
2022-08-19T02:03:28.543Z,45.73
2022-08-19T02:03:42.981Z,45.71
2022-08-19T02:03:59.202Z,45.7
2022-08-19T02:04:14.794Z,45.71
2022-08-19T02:04:31.391Z,45.69
2022-08-19T02:04:47.189Z,45.68
2022-08-19T02:05:03.476Z,45.67
2022-08-19T02:05:19.520Z,45.69
2022-08-19T02:05:36.078Z,45.7
2022-08-19T02:05:51.694Z,45.69
2022-08-19T02:06:06.667Z,45.7
2022-08-19T02:06:27.094Z,45.69
2022-08-19T02:06:38.761Z,45.68
2022-08-19T02:06:55.462Z,45.7
2022-08-19T02:07:11.894Z,45.68
2022-08-19T02:07:28.154Z,45.67
2022-08-19T02:07:43.617Z,45.69
2022-08-19T02:07:59.675Z,45.68
2022-08-19T02:08:15.005Z,45.68
2022-08-19T02:08:31.004Z,45.69
2022-08-19T02:08:47.103Z,45.68
2022-08-19T02:09:02.499Z,45.7
2022-08-19T02:09:19.770Z,45.71
2022-08-19T02:09:34.739Z,45.71
2022-08-19T02:09:51.776Z,45.71
2022-08-19T02:10:09.377Z,45.7
2022-08-19T02:10:24.268Z,45.7
2022-08-19T02:10:38.966Z,45.71
2022-08-19T02:10:55.753Z,45.71
2022-08-19T02:11:10.990Z,45.7
2022-08-19T02:11:26.710Z,45.68
2022-08-19T02:11:43.180Z,45.7
2022-08-19T02:11:58.460Z,45.7
2022-08-19T02:12:16.025Z,45.71
2022-08-19T02:12:31.199Z,45.7
2022-08-19T02:12:48.920Z,45.67
2022-08-19T02:13:04.855Z,45.68
2022-08-19T02:13:24.265Z,45.69
2022-08-19T02:13:35.400Z,45.69
2022-08-19T02:13:53.231Z,45.69
2022-08-19T02:14:07.543Z,45.7
2022-08-19T02:14:23.114Z,45.71
2022-08-19T02:14:39.738Z,45.7
2022-08-19T02:14:54.532Z,45.68
2022-08-19T02:15:12.915Z,45.71
2022-08-19T02:15:26.850Z,45.7
2022-08-19T02:15:43.968Z,45.7
2022-08-19T02:15:59.303Z,45.7
2022-08-19T02:16:15.477Z,45.68
2022-08-19T02:16:31.140Z,45.68
2022-08-19T02:16:47.640Z,45.7
2022-08-19T02:17:03.154Z,45.7
2022-08-19T02:17:18.555Z,45.7
2022-08-19T02:17:35.585Z,45.69
2022-08-19T02:17:51.303Z,45.72
2022-08-19T02:18:07.607Z,45.68
2022-08-19T02:18:22.961Z,45.74
2022-08-19T02:18:39.622Z,45.73
2022-08-19T02:18:57.855Z,45.72
2022-08-19T02:19:12.189Z,45.72
2022-08-19T02:19:26.957Z,45.72
2022-08-19T02:19:42.762Z,45.7
2022-08-19T02:19:58.964Z,45.71
2022-08-19T02:20:16.232Z,45.72
2022-08-19T02:20:33.069Z,45.71
2022-08-19T02:20:47.371Z,45.7
2022-08-19T02:21:03.300Z,45.7
2022-08-19T02:21:19.536Z,45.73
2022-08-19T02:21:35.457Z,45.72
2022-08-19T02:21:50.987Z,45.71
2022-08-19T02:22:07.000Z,45.73
2022-08-19T02:22:23.275Z,45.74
2022-08-19T02:22:38.324Z,45.74
2022-08-19T02:22:56.693Z,45.72
2022-08-19T02:23:13.819Z,45.72
2022-08-19T02:23:27.646Z,45.73
2022-08-19T02:23:42.786Z,45.72
2022-08-19T02:23:59.766Z,45.7
2022-08-19T02:24:15.607Z,45.7
2022-08-19T02:24:31.586Z,45.72
2022-08-19T02:24:46.741Z,45.71
2022-08-19T02:25:03.832Z,45.72
2022-08-19T02:25:19.858Z,45.72
2022-08-19T02:25:34.679Z,45.72
2022-08-19T02:25:51.872Z,45.71
2022-08-19T02:26:07.368Z,45.72
2022-08-19T02:26:23.737Z,45.7
2022-08-19T02:26:39.899Z,45.7
2022-08-19T02:26:58.766Z,45.69
2022-08-19T02:27:12.603Z,45.7
2022-08-19T02:27:28.277Z,45.71
2022-08-19T02:27:42.999Z,45.72
2022-08-19T02:27:59.015Z,45.7
2022-08-19T02:28:18.551Z,45.72
2022-08-19T02:28:32.183Z,45.72
2022-08-19T02:28:47.742Z,45.73
2022-08-19T02:29:03.976Z,45.74
2022-08-19T02:29:19.953Z,45.72
2022-08-19T02:29:35.995Z,45.72
2022-08-19T02:29:51.534Z,45.73
2022-08-19T02:30:07.645Z,45.74
2022-08-19T02:30:22.245Z,45.75
2022-08-19T02:30:39.488Z,45.72
2022-08-19T02:30:55.070Z,45.72
2022-08-19T02:31:11.770Z,45.72
2022-08-19T02:31:26.935Z,45.68
2022-08-19T02:31:44.032Z,45.72
2022-08-19T02:31:59.454Z,45.72
2022-08-19T02:32:15.460Z,45.74
2022-08-19T02:32:31.024Z,45.72
2022-08-19T02:32:48.219Z,45.7
2022-08-19T02:33:03.592Z,45.72
2022-08-19T02:33:18.161Z,45.72
2022-08-19T02:33:35.819Z,45.72
2022-08-19T02:33:50.667Z,45.72
2022-08-19T02:34:07.579Z,45.73
2022-08-19T02:34:23.414Z,45.72
2022-08-19T02:34:39.131Z,45.72
2022-08-19T02:34:54.900Z,45.71
2022-08-19T02:35:13.441Z,45.76
2022-08-19T02:35:27.188Z,45.74
2022-08-19T02:35:44.372Z,45.73
2022-08-19T02:35:58.944Z,45.74
2022-08-19T02:36:15.554Z,45.72
2022-08-19T02:36:31.873Z,45.72
2022-08-19T02:36:51.773Z,45.72
2022-08-19T02:37:03.899Z,45.72
2022-08-19T02:37:19.960Z,45.72
2022-08-19T02:37:35.660Z,45.73
2022-08-19T02:37:51.990Z,45.73
2022-08-19T02:38:07.852Z,45.73
2022-08-19T02:38:24.436Z,45.73
2022-08-19T02:38:38.517Z,45.72
2022-08-19T02:38:55.535Z,45.73
2022-08-19T02:39:11.227Z,45.73
2022-08-19T02:39:30.240Z,45.71
2022-08-19T02:39:42.500Z,45.72
2022-08-19T02:39:59.263Z,45.72
2022-08-19T02:40:14.792Z,45.72
2022-08-19T02:40:32.178Z,45.74
2022-08-19T02:40:46.640Z,45.72
2022-08-19T02:41:02.910Z,45.72
2022-08-19T02:41:19.257Z,45.72
2022-08-19T02:41:34.755Z,45.72
2022-08-19T02:41:51.776Z,45.72
2022-08-19T02:42:06.284Z,45.72
2022-08-19T02:42:23.502Z,45.74
2022-08-19T02:42:38.806Z,45.73
2022-08-19T02:42:55.853Z,45.72
2022-08-19T02:43:11.443Z,45.73
2022-08-19T02:43:28.024Z,45.73
2022-08-19T02:43:48.947Z,45.72
2022-08-19T02:44:26.600Z,45.69
2022-08-19T02:44:30.358Z,45.71
2022-08-19T02:44:32.025Z,45.73
2022-08-19T02:45:02.418Z,45.72
2022-08-19T02:45:19.244Z,45.73
2022-08-19T02:45:34.467Z,45.71
2022-08-19T02:45:51.435Z,45.73
2022-08-19T02:46:08.575Z,45.72
2022-08-19T02:46:23.289Z,45.7
2022-08-19T02:46:38.970Z,45.72
2022-08-19T02:46:54.238Z,45.72
2022-08-19T02:47:10.849Z,45.7
2022-08-19T02:47:26.913Z,45.7
2022-08-19T02:47:45.198Z,45.7
2022-08-19T02:47:59.032Z,45.7
2022-08-19T02:48:21.441Z,45.7
2022-08-19T02:48:32.089Z,45.7
2022-08-19T02:48:47.320Z,45.72
2022-08-19T02:49:03.602Z,45.72
2022-08-19T02:49:18.878Z,45.74
2022-08-19T02:49:35.130Z,45.71
2022-08-19T02:49:50.987Z,45.72
2022-08-19T02:50:06.915Z,45.72
2022-08-19T02:50:24.415Z,45.71
2022-08-19T02:50:38.999Z,45.7
2022-08-19T02:50:55.078Z,45.71
2022-08-19T02:51:11.236Z,45.69
2022-08-19T02:51:27.292Z,45.7
2022-08-19T02:51:45.427Z,45.71
2022-08-19T02:51:58.782Z,45.7
2022-08-19T02:52:14.287Z,45.7
2022-08-19T02:52:31.556Z,45.7
2022-08-19T02:52:47.104Z,45.7
2022-08-19T02:53:03.677Z,45.7
2022-08-19T02:53:19.075Z,45.7
2022-08-19T02:53:36.949Z,45.7
2022-08-19T02:53:50.787Z,45.7
2022-08-19T02:54:07.848Z,45.72
2022-08-19T02:54:22.914Z,45.72
2022-08-19T02:54:38.346Z,45.72
2022-08-19T02:54:55.668Z,45.7
2022-08-19T02:55:10.142Z,45.72
2022-08-19T02:55:27.252Z,45.72
2022-08-19T02:55:45.741Z,45.73
2022-08-19T02:55:59.598Z,45.73
2022-08-19T02:56:14.925Z,45.71
2022-08-19T02:56:31.885Z,45.73
2022-08-19T02:56:46.617Z,45.72
2022-08-19T02:57:04.128Z,45.75
2022-08-19T02:57:18.870Z,45.72
2022-08-19T02:57:35.006Z,45.72
2022-08-19T02:57:52.939Z,45.73
2022-08-19T02:58:08.298Z,45.71
2022-08-19T02:58:22.890Z,45.71
2022-08-19T02:58:39.121Z,45.73
2022-08-19T02:58:55.316Z,45.71
2022-08-19T02:59:11.083Z,45.71
2022-08-19T02:59:27.923Z,45.7
2022-08-19T02:59:43.390Z,45.71
2022-08-19T03:00:00.190Z,45.7
2022-08-19T03:00:15.270Z,45.72
2022-08-19T03:00:30.487Z,45.72
2022-08-19T03:00:47.381Z,45.73
2022-08-19T03:01:03.103Z,45.72
2022-08-19T03:01:19.589Z,45.71
2022-08-19T03:01:37.098Z,45.72
2022-08-19T03:01:51.707Z,45.72
2022-08-19T03:02:07.165Z,45.68
2022-08-19T03:02:25.747Z,45.71
2022-08-19T03:02:38.878Z,45.7
2022-08-19T03:02:54.461Z,45.7
2022-08-19T03:03:11.621Z,45.7
2022-08-19T03:03:27.086Z,45.72
2022-08-19T03:03:43.769Z,45.72
2022-08-19T03:04:01.761Z,45.73
2022-08-19T03:04:15.898Z,45.72
2022-08-19T03:04:31.214Z,45.72
2022-08-19T03:04:47.826Z,45.72
2022-08-19T03:05:02.749Z,45.72
2022-08-19T03:05:20.173Z,45.72
2022-08-19T03:05:46.860Z,45.72
2022-08-19T03:05:56.637Z,45.73
2022-08-19T03:06:08.274Z,45.71
2022-08-19T03:06:22.593Z,45.71
2022-08-19T03:06:39.825Z,45.7
2022-08-19T03:06:54.577Z,45.7
2022-08-19T03:07:11.944Z,45.7
2022-08-19T03:07:26.818Z,45.7
2022-08-19T03:07:44.079Z,45.7
2022-08-19T03:07:59.182Z,45.7
2022-08-19T03:08:14.724Z,45.72
2022-08-19T03:08:32.352Z,45.7
2022-08-19T03:08:48.252Z,45.71
2022-08-19T03:09:03.116Z,45.7
2022-08-19T03:09:18.672Z,45.73
2022-08-19T03:09:35.711Z,45.71
2022-08-19T03:09:51.257Z,45.71
2022-08-19T03:10:09.029Z,45.68
2022-08-19T03:10:22.785Z,45.71
2022-08-19T03:10:39.775Z,45.72
2022-08-19T03:10:54.941Z,45.72
2022-08-19T03:11:10.782Z,45.73
2022-08-19T03:11:26.836Z,45.72
2022-08-19T03:11:42.792Z,45.71
2022-08-19T03:11:59.105Z,45.71
2022-08-19T03:12:15.210Z,45.72
2022-08-19T03:12:33.123Z,45.72
2022-08-19T03:12:47.339Z,45.69
2022-08-19T03:13:04.746Z,45.7
2022-08-19T03:13:19.448Z,45.73
2022-08-19T03:13:34.536Z,45.74
2022-08-19T03:13:51.325Z,45.74
2022-08-19T03:14:06.486Z,45.72
2022-08-19T03:14:22.769Z,45.72
2022-08-19T03:14:38.180Z,45.71
2022-08-19T03:14:55.627Z,45.73
2022-08-19T03:15:10.414Z,45.71
2022-08-19T03:15:27.451Z,45.72
2022-08-19T03:15:43.435Z,45.72
2022-08-19T03:15:59.260Z,45.7
2022-08-19T03:16:16.180Z,45.7
2022-08-19T03:16:33.149Z,45.7
2022-08-19T03:16:47.620Z,45.7
2022-08-19T03:17:02.330Z,45.72
2022-08-19T03:17:18.897Z,45.72
2022-08-19T03:17:34.490Z,45.71
2022-08-19T03:17:51.496Z,45.7
2022-08-19T03:18:06.690Z,45.72
2022-08-19T03:18:23.502Z,45.73
2022-08-19T03:18:40.273Z,45.7
2022-08-19T03:18:56.658Z,45.7
2022-08-19T03:19:11.193Z,45.7
2022-08-19T03:19:26.178Z,45.73
2022-08-19T03:19:43.147Z,45.71
2022-08-19T03:19:58.517Z,45.73
2022-08-19T03:20:14.854Z,45.75
2022-08-19T03:20:30.487Z,45.73
2022-08-19T03:20:49.220Z,45.72
2022-08-19T03:21:02.918Z,45.73
2022-08-19T03:21:19.121Z,45.71
2022-08-19T03:21:35.352Z,45.74
2022-08-19T03:21:50.262Z,45.73
2022-08-19T03:22:06.908Z,45.72
2022-08-19T03:22:22.143Z,45.71
2022-08-19T03:22:38.895Z,45.75
2022-08-19T03:22:55.090Z,45.75
2022-08-19T03:23:10.987Z,45.73
2022-08-19T03:23:26.490Z,45.71
2022-08-19T03:23:44.973Z,45.72
2022-08-19T03:23:59.270Z,45.71
2022-08-19T03:24:15.812Z,45.72
2022-08-19T03:24:31.539Z,45.72
2022-08-19T03:24:46.684Z,45.7
2022-08-19T03:25:02.836Z,45.74
2022-08-19T03:25:18.362Z,45.72
2022-08-19T03:25:35.749Z,45.71
2022-08-19T03:26:02.698Z,45.7
2022-08-19T03:26:16.343Z,45.72
2022-08-19T03:26:23.227Z,45.72
2022-08-19T03:26:41.020Z,45.72
2022-08-19T03:26:56.249Z,45.7
2022-08-19T03:27:10.315Z,45.69
2022-08-19T03:27:31.207Z,45.72
2022-08-19T03:27:42.582Z,45.73